Los Angeles, California
Traffic Map
Current Weather Conditions
Los Angeles, California
Clear
Clear
71°
Feels Like: 71°
Wind Chill: 71° Ceiling: Unl
Heat Index: 71° Visibility: 10mi
Dew Point: 62° Wind: 0mph
Humidity: 73% Direction: ° ()
Pressure: 29.96in Gusts: 0mph
Raw Report DataKCQT 300447Z AUTO 00000KT 10SM CLR 22/17 A2996 RMK AO2 SLP144 T02170167
Traffic Incident Summary
Active as of:
Severity:
Category:
InformationThere was an issue retrieving the traffic information for this location. Please try a different location or try again shortly.
Advertisements
Track Severe Weather on mobile